sensor_id;sensor_type;location;lat;lon;timestamp;P1;durP1;ratioP1;P2;durP2;ratioP2
52266;SDS011;38223;50.940;4.034;2022-11-14T00:01:42;49.53;;;37.30;;
52266;SDS011;38223;50.940;4.034;2022-11-14T00:04:14;47.05;;;37.05;;
52266;SDS011;38223;50.940;4.034;2022-11-14T00:06:47;46.05;;;36.10;;
52266;SDS011;38223;50.940;4.034;2022-11-14T00:09:23;47.70;;;37.30;;
52266;SDS011;38223;50.940;4.034;2022-11-14T00:11:56;51.00;;;36.83;;
52266;SDS011;38223;50.940;4.034;2022-11-14T00:14:27;52.30;;;38.58;;
52266;SDS011;38223;50.940;4.034;2022-11-14T00:16:58;49.75;;;38.63;;
52266;SDS011;38223;50.940;4.034;2022-11-14T00:19:30;48.70;;;35.30;;
52266;SDS011;38223;50.940;4.034;2022-11-14T00:22:04;44.90;;;35.25;;
52266;SDS011;38223;50.940;4.034;2022-11-14T00:24:40;45.98;;;35.45;;
52266;SDS011;38223;50.940;4.034;2022-11-14T00:27:59;45.23;;;33.83;;
52266;SDS011;38223;50.940;4.034;2022-11-14T00:30:34;46.28;;;34.58;;
52266;SDS011;38223;50.940;4.034;2022-11-14T00:33:04;45.45;;;34.53;;
52266;SDS011;38223;50.940;4.034;2022-11-14T00:35:35;44.70;;;34.03;;
52266;SDS011;38223;50.940;4.034;2022-11-14T00:38:07;43.78;;;34.13;;
52266;SDS011;38223;50.940;4.034;2022-11-14T00:40:49;43.33;;;33.28;;
52266;SDS011;38223;50.940;4.034;2022-11-14T00:43:18;42.10;;;32.65;;
52266;SDS011;38223;50.940;4.034;2022-11-14T00:45:51;42.53;;;32.63;;
52266;SDS011;38223;50.940;4.034;2022-11-14T00:48:27;41.73;;;31.57;;
52266;SDS011;38223;50.940;4.034;2022-11-14T00:51:07;45.08;;;32.65;;
52266;SDS011;38223;50.940;4.034;2022-11-14T00:53:43;39.58;;;32.05;;
52266;SDS011;38223;50.940;4.034;2022-11-14T00:56:34;44.67;;;34.38;;
52266;SDS011;38223;50.940;4.034;2022-11-14T00:59:03;47.35;;;34.50;;
52266;SDS011;38223;50.940;4.034;2022-11-14T01:01:30;41.53;;;33.85;;
52266;SDS011;38223;50.940;4.034;2022-11-14T01:04:05;46.40;;;33.75;;
52266;SDS011;38223;50.940;4.034;2022-11-14T01:06:37;44.60;;;32.93;;
52266;SDS011;38223;50.940;4.034;2022-11-14T01:09:12;47.80;;;35.68;;
52266;SDS011;38223;50.940;4.034;2022-11-14T01:11:42;46.48;;;35.80;;
52266;SDS011;38223;50.940;4.034;2022-11-14T01:14:14;46.68;;;36.80;;
52266;SDS011;38223;50.940;4.034;2022-11-14T01:16:48;48.02;;;36.38;;
52266;SDS011;38223;50.940;4.034;2022-11-14T01:19:21;46.25;;;35.05;;
52266;SDS011;38223;50.940;4.034;2022-11-14T01:21:53;43.28;;;34.70;;
52266;SDS011;38223;50.940;4.034;2022-11-14T01:24:26;41.98;;;34.58;;
52266;SDS011;38223;50.940;4.034;2022-11-14T01:26:58;42.45;;;33.58;;
52266;SDS011;38223;50.940;4.034;2022-11-14T01:29:32;41.08;;;33.02;;
52266;SDS011;38223;50.940;4.034;2022-11-14T01:32:00;42.83;;;33.95;;
52266;SDS011;38223;50.940;4.034;2022-11-14T01:34:32;42.88;;;33.15;;
52266;SDS011;38223;50.940;4.034;2022-11-14T01:37:02;39.10;;;32.63;;
52266;SDS011;38223;50.940;4.034;2022-11-14T01:39:34;42.93;;;32.63;;
52266;SDS011;38223;50.940;4.034;2022-11-14T01:42:03;41.48;;;32.50;;
52266;SDS011;38223;50.940;4.034;2022-11-14T01:44:44;42.38;;;33.23;;
52266;SDS011;38223;50.940;4.034;2022-11-14T01:47:21;38.38;;;31.12;;
52266;SDS011;38223;50.940;4.034;2022-11-14T01:49:55;39.67;;;31.50;;
52266;SDS011;38223;50.940;4.034;2022-11-14T01:52:28;40.48;;;31.00;;
52266;SDS011;38223;50.940;4.034;2022-11-14T01:55:02;40.25;;;30.75;;
52266;SDS011;38223;50.940;4.034;2022-11-14T01:57:37;41.73;;;29.42;;
52266;SDS011;38223;50.940;4.034;2022-11-14T02:00:09;40.75;;;29.75;;
52266;SDS011;38223;50.940;4.034;2022-11-14T02:02:40;38.48;;;28.27;;
52266;SDS011;38223;50.940;4.034;2022-11-14T02:05:11;34.23;;;27.55;;
52266;SDS011;38223;50.940;4.034;2022-11-14T02:07:48;31.77;;;27.48;;
52266;SDS011;38223;50.940;4.034;2022-11-14T02:10:21;31.55;;;26.77;;
52266;SDS011;38223;50.940;4.034;2022-11-14T02:12:51;32.73;;;26.97;;
52266;SDS011;38223;50.940;4.034;2022-11-14T02:15:23;39.48;;;27.13;;
52266;SDS011;38223;50.940;4.034;2022-11-14T02:17:52;32.75;;;27.82;;
52266;SDS011;38223;50.940;4.034;2022-11-14T02:20:21;35.10;;;27.70;;
52266;SDS011;38223;50.940;4.034;2022-11-14T02:22:56;31.70;;;26.48;;
52266;SDS011;38223;50.940;4.034;2022-11-14T02:25:31;34.18;;;28.10;;
52266;SDS011;38223;50.940;4.034;2022-11-14T02:28:06;33.40;;;26.82;;
52266;SDS011;38223;50.940;4.034;2022-11-14T02:30:37;32.15;;;26.02;;
52266;SDS011;38223;50.940;4.034;2022-11-14T02:33:13;32.40;;;25.85;;
52266;SDS011;38223;50.940;4.034;2022-11-14T02:35:45;32.15;;;25.95;;
52266;SDS011;38223;50.940;4.034;2022-11-14T02:38:19;31.30;;;25.25;;
52266;SDS011;38223;50.940;4.034;2022-11-14T02:40:54;31.52;;;25.43;;
52266;SDS011;38223;50.940;4.034;2022-11-14T02:43:25;31.75;;;26.10;;
52266;SDS011;38223;50.940;4.034;2022-11-14T02:46:02;31.20;;;25.65;;
52266;SDS011;38223;50.940;4.034;2022-11-14T02:48:32;31.25;;;26.77;;
52266;SDS011;38223;50.940;4.034;2022-11-14T02:51:08;33.40;;;27.15;;
52266;SDS011;38223;50.940;4.034;2022-11-14T02:53:38;32.58;;;26.93;;
52266;SDS011;38223;50.940;4.034;2022-11-14T02:56:12;34.60;;;28.05;;
52266;SDS011;38223;50.940;4.034;2022-11-14T02:59:01;38.80;;;27.30;;
52266;SDS011;38223;50.940;4.034;2022-11-14T03:01:36;35.38;;;28.52;;
52266;SDS011;38223;50.940;4.034;2022-11-14T03:04:07;32.28;;;27.48;;
52266;SDS011;38223;50.940;4.034;2022-11-14T03:06:39;36.20;;;28.27;;
52266;SDS011;38223;50.940;4.034;2022-11-14T03:09:06;32.95;;;27.35;;
52266;SDS011;38223;50.940;4.034;2022-11-14T03:11:34;33.30;;;27.67;;
52266;SDS011;38223;50.940;4.034;2022-11-14T03:14:02;32.53;;;26.45;;
52266;SDS011;38223;50.940;4.034;2022-11-14T03:16:34;35.03;;;27.37;;
52266;SDS011;38223;50.940;4.034;2022-11-14T03:19:07;33.02;;;27.58;;
52266;SDS011;38223;50.940;4.034;2022-11-14T03:21:39;34.58;;;26.40;;
52266;SDS011;38223;50.940;4.034;2022-11-14T03:24:16;37.40;;;27.85;;
52266;SDS011;38223;50.940;4.034;2022-11-14T03:26:48;34.05;;;27.13;;
52266;SDS011;38223;50.940;4.034;2022-11-14T03:29:21;38.80;;;27.15;;
52266;SDS011;38223;50.940;4.034;2022-11-14T03:31:55;34.30;;;26.73;;
52266;SDS011;38223;50.940;4.034;2022-11-14T03:34:25;34.38;;;27.48;;
52266;SDS011;38223;50.940;4.034;2022-11-14T03:36:56;33.55;;;26.68;;
52266;SDS011;38223;50.940;4.034;2022-11-14T03:39:26;34.60;;;26.20;;
52266;SDS011;38223;50.940;4.034;2022-11-14T03:41:59;33.90;;;25.88;;
52266;SDS011;38223;50.940;4.034;2022-11-14T03:44:30;36.85;;;25.72;;
52266;SDS011;38223;50.940;4.034;2022-11-14T03:47:05;32.60;;;26.33;;
52266;SDS011;38223;50.940;4.034;2022-11-14T03:49:36;38.80;;;27.80;;
52266;SDS011;38223;50.940;4.034;2022-11-14T03:52:08;35.35;;;27.75;;
52266;SDS011;38223;50.940;4.034;2022-11-14T03:54:39;35.52;;;26.62;;
52266;SDS011;38223;50.940;4.034;2022-11-14T03:57:06;33.25;;;25.55;;
52266;SDS011;38223;50.940;4.034;2022-11-14T03:59:37;30.57;;;25.57;;
52266;SDS011;38223;50.940;4.034;2022-11-14T04:02:05;30.15;;;24.90;;
52266;SDS011;38223;50.940;4.034;2022-11-14T04:04:32;27.48;;;24.45;;
52266;SDS011;38223;50.940;4.034;2022-11-14T04:07:03;25.02;;;22.35;;
52266;SDS011;38223;50.940;4.034;2022-11-14T04:09:31;24.55;;;20.68;;
52266;SDS011;38223;50.940;4.034;2022-11-14T04:11:58;24.50;;;19.80;;
52266;SDS011;38223;50.940;4.034;2022-11-14T04:14:28;21.07;;;18.97;;
52266;SDS011;38223;50.940;4.034;2022-11-14T04:17:00;19.27;;;17.37;;
52266;SDS011;38223;50.940;4.034;2022-11-14T04:19:27;21.20;;;18.90;;
52266;SDS011;38223;50.940;4.034;2022-11-14T04:21:55;21.05;;;18.92;;
52266;SDS011;38223;50.940;4.034;2022-11-14T04:24:24;22.13;;;19.75;;
52266;SDS011;38223;50.940;4.034;2022-11-14T04:26:53;20.85;;;18.73;;
52266;SDS011;38223;50.940;4.034;2022-11-14T04:29:29;20.57;;;18.60;;
52266;SDS011;38223;50.940;4.034;2022-11-14T04:32:00;21.40;;;19.30;;
52266;SDS011;38223;50.940;4.034;2022-11-14T04:34:29;21.90;;;19.73;;
52266;SDS011;38223;50.940;4.034;2022-11-14T04:36:56;21.82;;;19.60;;
52266;SDS011;38223;50.940;4.034;2022-11-14T04:39:24;21.50;;;19.30;;
52266;SDS011;38223;50.940;4.034;2022-11-14T04:41:52;21.68;;;19.57;;
52266;SDS011;38223;50.940;4.034;2022-11-14T04:44:23;22.45;;;19.20;;
52266;SDS011;38223;50.940;4.034;2022-11-14T04:46:53;20.17;;;18.20;;
52266;SDS011;38223;50.940;4.034;2022-11-14T04:49:24;21.45;;;19.25;;
52266;SDS011;38223;50.940;4.034;2022-11-14T04:51:57;18.70;;;16.80;;
52266;SDS011;38223;50.940;4.034;2022-11-14T04:54:26;17.77;;;15.98;;
52266;SDS011;38223;50.940;4.034;2022-11-14T04:56:54;18.90;;;17.05;;
52266;SDS011;38223;50.940;4.034;2022-11-14T04:59:24;18.85;;;17.15;;
52266;SDS011;38223;50.940;4.034;2022-11-14T05:01:58;20.05;;;18.10;;
52266;SDS011;38223;50.940;4.034;2022-11-14T05:04:32;20.40;;;18.20;;
52266;SDS011;38223;50.940;4.034;2022-11-14T05:07:02;21.20;;;18.73;;
52266;SDS011;38223;50.940;4.034;2022-11-14T05:09:32;21.65;;;19.02;;
52266;SDS011;38223;50.940;4.034;2022-11-14T05:12:04;20.05;;;18.15;;
52266;SDS011;38223;50.940;4.034;2022-11-14T05:14:42;21.77;;;19.48;;
52266;SDS011;38223;50.940;4.034;2022-11-14T05:17:16;20.68;;;18.67;;
52266;SDS011;38223;50.940;4.034;2022-11-14T05:19:47;22.35;;;20.02;;
52266;SDS011;38223;50.940;4.034;2022-11-14T05:22:37;22.17;;;19.92;;
52266;SDS011;38223;50.940;4.034;2022-11-14T05:25:10;22.22;;;19.35;;
52266;SDS011;38223;50.940;4.034;2022-11-14T05:27:43;21.62;;;19.37;;
52266;SDS011;38223;50.940;4.034;2022-11-14T05:30:14;20.45;;;18.50;;
52266;SDS011;38223;50.940;4.034;2022-11-14T05:33:04;19.65;;;17.75;;
52266;SDS011;38223;50.940;4.034;2022-11-14T05:35:39;20.55;;;18.45;;
52266;SDS011;38223;50.940;4.034;2022-11-14T05:38:09;20.82;;;18.73;;
52266;SDS011;38223;50.940;4.034;2022-11-14T05:40:42;20.37;;;18.27;;
52266;SDS011;38223;50.940;4.034;2022-11-14T05:43:14;21.42;;;19.42;;
52266;SDS011;38223;50.940;4.034;2022-11-14T05:46:05;22.10;;;19.40;;
52266;SDS011;38223;50.940;4.034;2022-11-14T05:48:38;21.62;;;19.32;;
52266;SDS011;38223;50.940;4.034;2022-11-14T05:51:12;21.62;;;19.35;;
52266;SDS011;38223;50.940;4.034;2022-11-14T05:53:44;20.60;;;18.57;;
52266;SDS011;38223;50.940;4.034;2022-11-14T05:56:18;19.92;;;17.92;;
52266;SDS011;38223;50.940;4.034;2022-11-14T05:59:09;20.35;;;18.35;;
52266;SDS011;38223;50.940;4.034;2022-11-14T06:01:38;19.37;;;17.48;;
52266;SDS011;38223;50.940;4.034;2022-11-14T06:04:12;20.62;;;18.62;;
52266;SDS011;38223;50.940;4.034;2022-11-14T06:06:47;19.15;;;17.15;;
52266;SDS011;38223;50.940;4.034;2022-11-14T06:09:16;19.32;;;17.52;;
52266;SDS011;38223;50.940;4.034;2022-11-14T06:11:48;19.23;;;17.33;;
52266;SDS011;38223;50.940;4.034;2022-11-14T06:14:17;21.90;;;18.07;;
52266;SDS011;38223;50.940;4.034;2022-11-14T06:16:49;20.27;;;18.17;;
52266;SDS011;38223;50.940;4.034;2022-11-14T06:19:21;19.30;;;17.30;;
52266;SDS011;38223;50.940;4.034;2022-11-14T06:21:48;22.32;;;17.87;;
52266;SDS011;38223;50.940;4.034;2022-11-14T06:24:19;22.32;;;18.32;;
52266;SDS011;38223;50.940;4.034;2022-11-14T06:26:47;19.32;;;17.15;;
52266;SDS011;38223;50.940;4.034;2022-11-14T06:29:22;25.80;;;18.60;;
52266;SDS011;38223;50.940;4.034;2022-11-14T06:31:49;26.12;;;18.32;;
52266;SDS011;38223;50.940;4.034;2022-11-14T06:34:21;19.25;;;17.25;;
52266;SDS011;38223;50.940;4.034;2022-11-14T06:36:53;20.85;;;17.35;;
52266;SDS011;38223;50.940;4.034;2022-11-14T06:39:23;19.85;;;17.20;;
52266;SDS011;38223;50.940;4.034;2022-11-14T06:41:55;19.90;;;17.15;;
52266;SDS011;38223;50.940;4.034;2022-11-14T06:44:26;19.75;;;17.37;;
52266;SDS011;38223;50.940;4.034;2022-11-14T06:46:58;22.20;;;18.48;;
52266;SDS011;38223;50.940;4.034;2022-11-14T06:49:30;20.32;;;18.15;;
52266;SDS011;38223;50.940;4.034;2022-11-14T06:52:00;18.77;;;16.77;;
52266;SDS011;38223;50.940;4.034;2022-11-14T06:54:29;18.75;;;15.98;;
52266;SDS011;38223;50.940;4.034;2022-11-14T06:56:57;21.33;;;16.15;;
52266;SDS011;38223;50.940;4.034;2022-11-14T06:59:29;22.13;;;16.87;;
52266;SDS011;38223;50.940;4.034;2022-11-14T07:01:59;25.35;;;18.07;;
52266;SDS011;38223;50.940;4.034;2022-11-14T07:04:31;21.17;;;16.20;;
52266;SDS011;38223;50.940;4.034;2022-11-14T07:07:00;23.02;;;17.20;;
52266;SDS011;38223;50.940;4.034;2022-11-14T07:09:28;21.70;;;17.35;;
52266;SDS011;38223;50.940;4.034;2022-11-14T07:11:56;18.50;;;16.25;;
52266;SDS011;38223;50.940;4.034;2022-11-14T07:16:56;20.77;;;16.25;;
52266;SDS011;38223;50.940;4.034;2022-11-14T07:19:29;21.15;;;17.20;;
52266;SDS011;38223;50.940;4.034;2022-11-14T07:21:57;24.32;;;17.23;;
52266;SDS011;38223;50.940;4.034;2022-11-14T07:24:25;20.48;;;16.57;;
52266;SDS011;38223;50.940;4.034;2022-11-14T07:26:53;23.10;;;17.07;;
52266;SDS011;38223;50.940;4.034;2022-11-14T07:29:21;19.45;;;16.57;;
52266;SDS011;38223;50.940;4.034;2022-11-14T07:31:53;24.10;;;17.95;;
52266;SDS011;38223;50.940;4.034;2022-11-14T07:34:24;21.25;;;16.37;;
52266;SDS011;38223;50.940;4.034;2022-11-14T07:36:57;27.22;;;17.55;;
52266;SDS011;38223;50.940;4.034;2022-11-14T07:39:32;25.20;;;16.60;;
52266;SDS011;38223;50.940;4.034;2022-11-14T07:42:03;23.73;;;16.02;;
52266;SDS011;38223;50.940;4.034;2022-11-14T07:44:34;25.68;;;16.52;;
52266;SDS011;38223;50.940;4.034;2022-11-14T07:47:01;26.80;;;16.52;;
52266;SDS011;38223;50.940;4.034;2022-11-14T07:49:37;35.70;;;16.35;;
52266;SDS011;38223;50.940;4.034;2022-11-14T07:52:07;24.40;;;16.95;;
52266;SDS011;38223;50.940;4.034;2022-11-14T07:54:50;29.48;;;16.15;;
52266;SDS011;38223;50.940;4.034;2022-11-14T07:57:22;24.72;;;17.07;;
52266;SDS011;38223;50.940;4.034;2022-11-14T07:59:53;22.77;;;16.80;;
52266;SDS011;38223;50.940;4.034;2022-11-14T08:02:22;25.75;;;17.17;;
52266;SDS011;38223;50.940;4.034;2022-11-14T08:04:54;26.55;;;17.45;;
52266;SDS011;38223;50.940;4.034;2022-11-14T08:07:29;24.65;;;16.95;;
52266;SDS011;38223;50.940;4.034;2022-11-14T08:09:59;19.37;;;14.98;;
52266;SDS011;38223;50.940;4.034;2022-11-14T08:12:30;22.95;;;15.88;;
52266;SDS011;38223;50.940;4.034;2022-11-14T08:15:00;20.97;;;14.95;;
52266;SDS011;38223;50.940;4.034;2022-11-14T08:17:34;23.83;;;14.43;;
52266;SDS011;38223;50.940;4.034;2022-11-14T08:20:06;23.35;;;15.23;;
52266;SDS011;38223;50.940;4.034;2022-11-14T08:22:41;16.37;;;14.63;;
52266;SDS011;38223;50.940;4.034;2022-11-14T08:25:15;21.97;;;14.98;;
52266;SDS011;38223;50.940;4.034;2022-11-14T08:27:47;17.80;;;14.40;;
52266;SDS011;38223;50.940;4.034;2022-11-14T08:30:17;21.60;;;15.32;;
52266;SDS011;38223;50.940;4.034;2022-11-14T08:32:47;21.60;;;16.15;;
52266;SDS011;38223;50.940;4.034;2022-11-14T08:35:16;24.72;;;16.60;;
52266;SDS011;38223;50.940;4.034;2022-11-14T08:37:48;24.55;;;16.57;;
52266;SDS011;38223;50.940;4.034;2022-11-14T08:40:16;21.85;;;17.20;;
52266;SDS011;38223;50.940;4.034;2022-11-14T08:42:48;19.10;;;15.55;;
52266;SDS011;38223;50.940;4.034;2022-11-14T08:45:16;19.73;;;15.93;;
52266;SDS011;38223;50.940;4.034;2022-11-14T08:47:51;21.57;;;15.98;;
52266;SDS011;38223;50.940;4.034;2022-11-14T08:50:26;21.45;;;15.60;;
52266;SDS011;38223;50.940;4.034;2022-11-14T08:52:56;17.23;;;15.43;;
52266;SDS011;38223;50.940;4.034;2022-11-14T08:55:44;20.05;;;14.98;;
52266;SDS011;38223;50.940;4.034;2022-11-14T08:58:17;18.32;;;16.00;;
52266;SDS011;38223;50.940;4.034;2022-11-14T09:00:48;19.85;;;17.05;;
52266;SDS011;38223;50.940;4.034;2022-11-14T09:03:18;22.48;;;16.20;;
52266;SDS011;38223;50.940;4.034;2022-11-14T09:05:50;20.02;;;16.25;;
52266;SDS011;38223;50.940;4.034;2022-11-14T09:08:23;20.35;;;16.37;;
52266;SDS011;38223;50.940;4.034;2022-11-14T09:10:51;19.52;;;16.02;;
52266;SDS011;38223;50.940;4.034;2022-11-14T09:13:19;18.27;;;16.07;;
52266;SDS011;38223;50.940;4.034;2022-11-14T09:15:51;21.87;;;17.27;;
52266;SDS011;38223;50.940;4.034;2022-11-14T09:18:24;22.65;;;16.95;;
52266;SDS011;38223;50.940;4.034;2022-11-14T09:21:01;23.07;;;16.55;;
52266;SDS011;38223;50.940;4.034;2022-11-14T09:23:34;19.50;;;17.37;;
52266;SDS011;38223;50.940;4.034;2022-11-14T09:26:04;20.97;;;16.25;;
52266;SDS011;38223;50.940;4.034;2022-11-14T09:28:35;18.87;;;16.95;;
52266;SDS011;38223;50.940;4.034;2022-11-14T09:31:08;19.27;;;16.25;;
52266;SDS011;38223;50.940;4.034;2022-11-14T09:33:43;18.85;;;16.87;;
52266;SDS011;38223;50.940;4.034;2022-11-14T09:36:15;19.85;;;16.23;;
52266;SDS011;38223;50.940;4.034;2022-11-14T09:38:45;20.77;;;16.97;;
52266;SDS011;38223;50.940;4.034;2022-11-14T09:46:57;23.05;;;16.97;;
52266;SDS011;38223;50.940;4.034;2022-11-14T09:49:31;24.90;;;18.17;;
52266;SDS011;38223;50.940;4.034;2022-11-14T09:52:48;22.17;;;18.10;;
52266;SDS011;38223;50.940;4.034;2022-11-14T09:54:57;20.15;;;16.23;;
52266;SDS011;38223;50.940;4.034;2022-11-14T09:57:27;18.90;;;16.02;;
52266;SDS011;38223;50.940;4.034;2022-11-14T09:59:58;22.10;;;16.55;;
52266;SDS011;38223;50.940;4.034;2022-11-14T10:05:35;21.15;;;16.65;;
52266;SDS011;38223;50.940;4.034;2022-11-14T10:11:21;21.80;;;16.87;;
52266;SDS011;38223;50.940;4.034;2022-11-14T10:25:24;21.52;;;17.23;;
52266;SDS011;38223;50.940;4.034;2022-11-14T10:33:22;23.38;;;17.62;;
52266;SDS011;38223;50.940;4.034;2022-11-14T10:38:54;26.17;;;19.67;;
52266;SDS011;38223;50.940;4.034;2022-11-14T10:41:25;28.25;;;21.50;;
52266;SDS011;38223;50.940;4.034;2022-11-14T10:43:58;41.20;;;23.67;;
52266;SDS011;38223;50.940;4.034;2022-11-14T10:46:33;32.17;;;23.12;;
52266;SDS011;38223;50.940;4.034;2022-11-14T10:49:17;34.40;;;25.02;;
52266;SDS011;38223;50.940;4.034;2022-11-14T10:51:49;37.08;;;24.98;;
52266;SDS011;38223;50.940;4.034;2022-11-14T10:54:46;43.52;;;25.85;;
52266;SDS011;38223;50.940;4.034;2022-11-14T10:57:21;47.43;;;28.92;;
52266;SDS011;38223;50.940;4.034;2022-11-14T10:59:51;36.55;;;25.30;;
52266;SDS011;38223;50.940;4.034;2022-11-14T11:02:26;38.53;;;26.00;;
52266;SDS011;38223;50.940;4.034;2022-11-14T11:05:10;39.13;;;26.62;;
52266;SDS011;38223;50.940;4.034;2022-11-14T11:07:36;41.28;;;26.07;;
52266;SDS011;38223;50.940;4.034;2022-11-14T11:10:25;36.25;;;25.43;;
52266;SDS011;38223;50.940;4.034;2022-11-14T11:13:14;36.48;;;25.25;;
52266;SDS011;38223;50.940;4.034;2022-11-14T11:15:48;38.88;;;25.82;;
52266;SDS011;38223;50.940;4.034;2022-11-14T11:18:25;37.20;;;24.92;;
52266;SDS011;38223;50.940;4.034;2022-11-14T11:21:07;41.45;;;27.42;;
52266;SDS011;38223;50.940;4.034;2022-11-14T11:23:55;42.10;;;26.62;;
52266;SDS011;38223;50.940;4.034;2022-11-14T11:26:30;42.98;;;28.07;;
52266;SDS011;38223;50.940;4.034;2022-11-14T11:34:27;45.50;;;28.57;;
52266;SDS011;38223;50.940;4.034;2022-11-14T11:37:03;41.00;;;27.30;;
52266;SDS011;38223;50.940;4.034;2022-11-14T11:39:39;39.90;;;25.35;;
52266;SDS011;38223;50.940;4.034;2022-11-14T11:42:11;38.17;;;27.22;;
52266;SDS011;38223;50.940;4.034;2022-11-14T11:44:42;42.90;;;28.95;;
52266;SDS011;38223;50.940;4.034;2022-11-14T11:47:12;39.75;;;28.15;;
52266;SDS011;38223;50.940;4.034;2022-11-14T11:49:50;41.77;;;27.73;;
52266;SDS011;38223;50.940;4.034;2022-11-14T11:52:35;41.88;;;28.90;;
52266;SDS011;38223;50.940;4.034;2022-11-14T11:55:24;32.78;;;24.77;;
52266;SDS011;38223;50.940;4.034;2022-11-14T11:58:08;35.92;;;25.77;;
52266;SDS011;38223;50.940;4.034;2022-11-14T12:00:55;31.55;;;24.43;;
52266;SDS011;38223;50.940;4.034;2022-11-14T12:03:25;31.73;;;24.65;;
52266;SDS011;38223;50.940;4.034;2022-11-14T12:06:17;34.27;;;25.95;;
52266;SDS011;38223;50.940;4.034;2022-11-14T12:11:31;38.42;;;27.25;;
52266;SDS011;38223;50.940;4.034;2022-11-14T12:14:07;33.13;;;25.25;;
52266;SDS011;38223;50.940;4.034;2022-11-14T12:19:53;34.60;;;24.55;;
52266;SDS011;38223;50.940;4.034;2022-11-14T12:28:38;30.43;;;21.95;;
52266;SDS011;38223;50.940;4.034;2022-11-14T12:31:09;27.00;;;22.30;;
52266;SDS011;38223;50.940;4.034;2022-11-14T12:33:44;27.40;;;22.90;;
52266;SDS011;38223;50.940;4.034;2022-11-14T12:36:17;28.65;;;22.52;;
52266;SDS011;38223;50.940;4.034;2022-11-14T12:38:51;31.60;;;22.45;;
52266;SDS011;38223;50.940;4.034;2022-11-14T12:41:26;30.35;;;24.30;;
52266;SDS011;38223;50.940;4.034;2022-11-14T12:44:41;29.95;;;23.27;;
52266;SDS011;38223;50.940;4.034;2022-11-14T13:00:59;39.90;;;27.73;;
52266;SDS011;38223;50.940;4.034;2022-11-14T13:03:16;43.92;;;29.00;;
52266;SDS011;38223;50.940;4.034;2022-11-14T13:14:29;45.92;;;28.77;;
52266;SDS011;38223;50.940;4.034;2022-11-14T13:17:23;38.40;;;26.50;;
52266;SDS011;38223;50.940;4.034;2022-11-14T13:28:44;35.92;;;25.10;;
52266;SDS011;38223;50.940;4.034;2022-11-14T13:33:55;31.00;;;24.60;;
52266;SDS011;38223;50.940;4.034;2022-11-14T13:36:43;30.50;;;24.05;;
52266;SDS011;38223;50.940;4.034;2022-11-14T13:39:28;33.30;;;23.62;;
52266;SDS011;38223;50.940;4.034;2022-11-14T13:42:26;36.77;;;24.57;;
52266;SDS011;38223;50.940;4.034;2022-11-14T13:45:22;38.83;;;24.32;;
52266;SDS011;38223;50.940;4.034;2022-11-14T13:48:21;32.13;;;24.45;;
52266;SDS011;38223;50.940;4.034;2022-11-14T13:51:17;31.10;;;24.00;;
52266;SDS011;38223;50.940;4.034;2022-11-14T13:53:52;30.77;;;24.18;;
52266;SDS011;38223;50.940;4.034;2022-11-14T14:05:21;31.00;;;22.45;;
52266;SDS011;38223;50.940;4.034;2022-11-14T14:25:25;35.40;;;24.12;;
52266;SDS011;38223;50.940;4.034;2022-11-14T14:28:13;38.95;;;26.42;;
52266;SDS011;38223;50.940;4.034;2022-11-14T14:33:45;35.78;;;26.37;;
52266;SDS011;38223;50.940;4.034;2022-11-14T14:36:25;42.58;;;24.82;;
52266;SDS011;38223;50.940;4.034;2022-11-14T14:39:16;33.85;;;24.07;;
52266;SDS011;38223;50.940;4.034;2022-11-14T14:41:45;36.13;;;25.97;;
52266;SDS011;38223;50.940;4.034;2022-11-14T14:44:20;34.60;;;24.20;;
52266;SDS011;38223;50.940;4.034;2022-11-14T14:46:49;31.05;;;24.18;;
52266;SDS011;38223;50.940;4.034;2022-11-14T14:49:34;32.17;;;24.02;;
52266;SDS011;38223;50.940;4.034;2022-11-14T14:52:17;32.67;;;24.43;;
52266;SDS011;38223;50.940;4.034;2022-11-14T14:54:55;29.18;;;23.12;;
52266;SDS011;38223;50.940;4.034;2022-11-14T14:57:27;35.98;;;23.83;;
52266;SDS011;38223;50.940;4.034;2022-11-14T15:00:04;34.00;;;22.80;;
52266;SDS011;38223;50.940;4.034;2022-11-14T15:02:35;29.37;;;21.02;;
52266;SDS011;38223;50.940;4.034;2022-11-14T15:05:10;29.23;;;22.20;;
52266;SDS011;38223;50.940;4.034;2022-11-14T15:07:41;27.55;;;21.73;;
52266;SDS011;38223;50.940;4.034;2022-11-14T15:10:23;26.93;;;20.27;;
52266;SDS011;38223;50.940;4.034;2022-11-14T15:12:57;26.60;;;20.90;;
52266;SDS011;38223;50.940;4.034;2022-11-14T15:15:29;23.95;;;19.65;;
52266;SDS011;38223;50.940;4.034;2022-11-14T15:18:03;27.60;;;21.52;;
52266;SDS011;38223;50.940;4.034;2022-11-14T15:20:36;26.33;;;20.70;;
52266;SDS011;38223;50.940;4.034;2022-11-14T15:25:59;25.15;;;20.35;;
52266;SDS011;38223;50.940;4.034;2022-11-14T15:28:21;25.23;;;20.57;;
52266;SDS011;38223;50.940;4.034;2022-11-14T15:31:02;26.23;;;21.00;;
52266;SDS011;38223;50.940;4.034;2022-11-14T15:33:31;23.85;;;19.17;;
52266;SDS011;38223;50.940;4.034;2022-11-14T15:36:07;26.20;;;19.65;;
52266;SDS011;38223;50.940;4.034;2022-11-14T15:41:35;22.90;;;19.48;;
52266;SDS011;38223;50.940;4.034;2022-11-14T15:44:13;22.00;;;18.27;;
52266;SDS011;38223;50.940;4.034;2022-11-14T15:46:47;20.40;;;18.20;;
52266;SDS011;38223;50.940;4.034;2022-11-14T15:49:22;23.45;;;18.20;;
52266;SDS011;38223;50.940;4.034;2022-11-14T15:51:57;20.35;;;18.05;;
52266;SDS011;38223;50.940;4.034;2022-11-14T15:54:31;28.27;;;18.42;;
52266;SDS011;38223;50.940;4.034;2022-11-14T15:57:14;20.12;;;17.52;;
52266;SDS011;38223;50.940;4.034;2022-11-14T15:59:44;23.20;;;17.95;;
52266;SDS011;38223;50.940;4.034;2022-11-14T16:02:17;24.37;;;18.73;;
52266;SDS011;38223;50.940;4.034;2022-11-14T16:04:54;24.63;;;17.98;;
52266;SDS011;38223;50.940;4.034;2022-11-14T16:07:26;21.50;;;18.05;;
52266;SDS011;38223;50.940;4.034;2022-11-14T16:09:57;24.20;;;18.95;;
52266;SDS011;38223;50.940;4.034;2022-11-14T16:12:32;22.70;;;18.50;;
52266;SDS011;38223;50.940;4.034;2022-11-14T16:15:03;24.30;;;18.67;;
52266;SDS011;38223;50.940;4.034;2022-11-14T16:17:42;21.37;;;18.65;;
52266;SDS011;38223;50.940;4.034;2022-11-14T16:20:21;24.23;;;19.17;;
52266;SDS011;38223;50.940;4.034;2022-11-14T16:23:00;23.62;;;19.10;;
52266;SDS011;38223;50.940;4.034;2022-11-14T16:25:29;22.00;;;17.75;;
52266;SDS011;38223;50.940;4.034;2022-11-14T16:27:59;25.23;;;18.65;;
52266;SDS011;38223;50.940;4.034;2022-11-14T16:30:31;26.40;;;19.30;;
52266;SDS011;38223;50.940;4.034;2022-11-14T16:32:59;29.10;;;20.05;;
52266;SDS011;38223;50.940;4.034;2022-11-14T16:35:30;26.40;;;20.88;;
52266;SDS011;38223;50.940;4.034;2022-11-14T16:38:01;26.48;;;20.95;;
52266;SDS011;38223;50.940;4.034;2022-11-14T16:40:34;30.80;;;22.73;;
52266;SDS011;38223;50.940;4.034;2022-11-14T16:43:04;29.82;;;22.32;;
52266;SDS011;38223;50.940;4.034;2022-11-14T16:45:42;30.70;;;22.60;;
52266;SDS011;38223;50.940;4.034;2022-11-14T16:48:13;32.20;;;22.35;;
52266;SDS011;38223;50.940;4.034;2022-11-14T16:50:50;30.48;;;23.02;;
52266;SDS011;38223;50.940;4.034;2022-11-14T16:53:21;32.20;;;23.47;;
52266;SDS011;38223;50.940;4.034;2022-11-14T16:55:54;35.90;;;25.95;;
52266;SDS011;38223;50.940;4.034;2022-11-14T16:58:29;35.95;;;25.88;;
52266;SDS011;38223;50.940;4.034;2022-11-14T17:01:04;32.67;;;24.63;;